Página principal
METAR-TAF:

METAR-TAF

Aeroportos :

McKinley Park, Alasca, Estados Unidos

latitude: 63-44N, longitude: 148-55W, altura: 524 m

Observação actual do tempo

O boletim foi feito há 1 hora e 22 minutos, às 21:56 UTC
Vento 5 kt de nor-nordeste
Temperatura 24°C
Humidade 38%
Pressão 1017 hPa
Visibilidade: 16.1 km
Céu limpo

METAR: PAIN 222156Z AUTO 03005KT 10SM CLR 24/09 A3002 RMK AO2 SLP168 T02440094

Hora: 15:18 (23:18 UTC)


TAF: em falta

Observações e previsões do tempo de mais de 4000 aeroportos (mensagens METAR e TAF).

As estações disponíveis são os pontos amarelos e vermelhos sobre o mapa.

Mova o rato sobre o mapa para ver o nome da estação.

Depois clique no ponto para visualizar as observações e previsões meteorológicas.

Para alterar o mapa : clique nos botões verdes com uma cruz preta para aumentar o zoom; no botão verde com uma pitada de zoom; ou nas setas verdes para mapas adjacentes.


METAR-TAF: